Time;durP1;ratioP1;P1;durP2;ratioP2;P2;SDS_P1;SDS_P2;PMS_P1;PMS_P2;Temp;Humidity;BMP_temperature;BMP_pressure;BME280_temperature;BME280_humidity;BME280_pressure;Samples;Min_cycle;Max_cycle;Signal;HPM_P1;HPM_P2
2021/04/19 00:00:23;;;;;;;14.37;12.50;;;;;;;;;;4935242;29;20472;-79
2021/04/19 00:02:49;;;;;;;17.17;11.33;;;;;;;;;;4935447;29;20448;-81
2021/04/19 00:08:21;;;;;;;15.37;11.50;;;;;;;;;;4935815;29;20780;-81
2021/04/19 00:10:47;;;;;;;16.43;11.77;;;;;;;;;;4935614;29;20940;-83
2021/04/19 00:13:13;;;;;;;13.17;11.80;;;;;;;;;;4935366;29;20763;-84
2021/04/19 00:15:39;;;;;;;14.57;10.40;;;;;;;;;;4935202;29;20412;-76
2021/04/19 00:18:05;;;;;;;14.47;11.40;;;;;;;;;;4935319;29;20427;-79
2021/04/19 00:23:35;;;;;;;14.30;11.00;;;;;;;;;;4935016;28;20789;-76
2021/04/19 00:26:01;;;;;;;13.90;12.50;;;;;;;;;;4935138;29;20416;-79
2021/04/19 00:28:27;;;;;;;13.98;11.20;;;;;;;;;;4935949;29;20460;-79
2021/04/19 00:30:53;;;;;;;14.97;11.63;;;;;;;;;;4936237;29;20180;-79
2021/04/19 00:33:19;;;;;;;15.90;11.15;;;;;;;;;;4937146;29;20429;-79
2021/04/19 00:35:45;;;;;;;15.60;11.33;;;;;;;;;;4938995;29;20293;-79
2021/04/19 00:38:11;;;;;;;13.63;12.17;;;;;;;;;;4921961;29;20471;-84
2021/04/19 00:40:38;;;;;;;14.60;12.07;;;;;;;;;;4938797;29;20548;-78
2021/04/19 00:43:04;;;;;;;14.27;11.00;;;;;;;;;;4939053;29;20412;-81
2021/04/19 00:45:30;;;;;;;13.13;11.23;;;;;;;;;;4938955;29;20415;-83
2021/04/19 00:47:56;;;;;;;23.60;12.77;;;;;;;;;;4938900;29;20417;-77
2021/04/19 00:53:26;;;;;;;12.20;10.50;;;;;;;;;;4948031;29;20415;-76
2021/04/19 00:55:53;;;;;;;11.30;9.57;;;;;;;;;;4957917;29;20488;-81
2021/04/19 00:58:22;;;;;;;13.07;10.30;;;;;;;;;;4939866;29;20446;-78
2021/04/19 01:00:48;;;;;;;16.03;12.30;;;;;;;;;;4938836;29;20482;-81
2021/04/19 01:03:14;;;;;;;13.70;11.13;;;;;;;;;;4938861;29;20501;-82
2021/04/19 01:08:43;;;;;;;18.93;11.90;;;;;;;;;;4938529;29;20444;-78
2021/04/19 01:11:09;;;;;;;16.30;12.50;;;;;;;;;;4938613;29;20487;-79
2021/04/19 01:13:35;;;;;;;12.17;10.40;;;;;;;;;;4938559;29;20452;-77
2021/04/19 01:16:02;;;;;;;12.77;11.40;;;;;;;;;;4920925;29;20437;-81
2021/04/19 01:18:28;;;;;;;11.43;10.30;;;;;;;;;;4937902;29;20511;-79
2021/04/19 01:23:57;;;;;;;13.32;10.75;;;;;;;;;;4937869;29;20623;-79
2021/04/19 01:26:23;;;;;;;15.17;11.97;;;;;;;;;;4938004;29;20631;-81
2021/04/19 01:28:50;;;;;;;13.63;11.60;;;;;;;;;;4937936;29;20443;-80
2021/04/19 01:31:16;;;;;;;14.55;10.93;;;;;;;;;;4937771;29;20423;-80
2021/04/19 01:33:42;;;;;;;14.10;12.60;;;;;;;;;;4937681;29;20181;-79
2021/04/19 01:39:16;;;;;;;13.70;11.73;;;;;;;;;;4937494;29;20426;-79
2021/04/19 01:41:42;;;;;;;14.60;12.15;;;;;;;;;;4937426;29;20472;-78
2021/04/19 01:44:08;;;;;;;16.57;13.77;;;;;;;;;;4936613;29;20180;-79
2021/04/19 01:46:34;;;;;;;12.97;11.47;;;;;;;;;;4937326;29;20420;-82
2021/04/19 01:49:00;;;;;;;13.30;11.90;;;;;;;;;;4920478;29;20443;-81
2021/04/19 01:51:27;;;;;;;20.57;11.20;;;;;;;;;;4937658;29;20432;-80
2021/04/19 01:53:53;;;;;;;14.47;12.80;;;;;;;;;;4937634;29;20520;-84
2021/04/19 01:56:19;;;;;;;15.53;12.17;;;;;;;;;;4937743;29;20420;-81
2021/04/19 01:58:45;;;;;;;14.67;12.87;;;;;;;;;;4937506;29;20420;-78
2021/04/19 02:01:11;;;;;;;15.97;12.40;;;;;;;;;;4936848;29;20504;-77
2021/04/19 02:03:46;;;;;;;15.83;12.33;;;;;;;;;;4937459;29;20421;-80
2021/04/19 02:09:22;;;;;;;14.90;12.30;;;;;;;;;;4937482;29;20511;-77
2021/04/19 02:11:48;;;;;;;17.77;13.17;;;;;;;;;;4937145;29;20488;-78
2021/04/19 02:14:14;;;;;;;15.03;12.00;;;;;;;;;;4937232;29;20413;-81
2021/04/19 02:16:40;;;;;;;17.10;12.13;;;;;;;;;;4937073;29;20579;-78
2021/04/19 02:25:16;;;;;;;20.20;13.07;;;;;;;;;;4937028;29;21070;-83
2021/04/19 02:27:45;;;;;;;17.17;13.00;;;;;;;;;;4937344;29;20231;-81
2021/04/19 02:30:13;;;;;;;20.00;13.47;;;;;;;;;;4937166;29;20420;-79
2021/04/19 02:32:44;;;;;;;16.30;14.30;;;;;;;;;;4937115;29;20516;-76
2021/04/19 02:35:11;;;;;;;15.23;12.50;;;;;;;;;;4937045;29;20424;-81
2021/04/19 02:37:38;;;;;;;18.70;13.77;;;;;;;;;;4936967;29;20519;-75
2021/04/19 02:40:06;;;;;;;17.05;13.32;;;;;;;;;;4942647;29;20463;-79
2021/04/19 02:42:35;;;;;;;20.43;15.30;;;;;;;;;;4953455;29;20182;-79
2021/04/19 02:45:01;;;;;;;17.40;13.47;;;;;;;;;;4938765;29;20474;-81
2021/04/19 02:47:28;;;;;;;15.40;12.40;;;;;;;;;;4937322;29;20424;-79
2021/04/19 02:49:54;;;;;;;16.33;13.60;;;;;;;;;;4937132;29;20495;-78
2021/04/19 02:52:21;;;;;;;18.10;13.30;;;;;;;;;;4919733;29;20796;-77
2021/04/19 02:54:47;;;;;;;16.05;13.48;;;;;;;;;;4936600;29;20417;-76
2021/04/19 02:57:24;;;;;;;15.50;13.40;;;;;;;;;;4935971;29;20203;-77
2021/04/19 02:59:51;;;;;;;23.75;13.80;;;;;;;;;;4936440;29;20562;-77
2021/04/19 03:02:17;;;;;;;16.67;13.27;;;;;;;;;;4936203;29;20176;-83
2021/04/19 03:04:44;;;;;;;15.00;13.03;;;;;;;;;;4936027;29;20424;-80
2021/04/19 03:07:10;;;;;;;18.07;13.13;;;;;;;;;;4936083;29;20428;-83
2021/04/19 03:09:40;;;;;;;22.92;15.77;;;;;;;;;;4936325;29;20478;-80
2021/04/19 03:12:07;;;;;;;17.92;14.23;;;;;;;;;;4936091;29;20172;-78
2021/04/19 03:14:59;;;;;;;14.70;13.20;;;;;;;;;;4936071;29;20176;-81
2021/04/19 03:17:25;;;;;;;20.98;14.35;;;;;;;;;;4933163;29;20445;-80
2021/04/19 03:20:03;;;;;;;24.30;13.20;;;;;;;;;;4935897;29;20188;-79
2021/04/19 03:22:30;;;;;;;16.00;13.93;;;;;;;;;;4935906;29;20179;-79
2021/04/19 03:24:56;;;;;;;22.13;14.95;;;;;;;;;;4935371;28;20737;-78
2021/04/19 03:27:26;;;;;;;19.20;14.50;;;;;;;;;;4935642;29;20181;-81
2021/04/19 03:29:52;;;;;;;17.60;14.30;;;;;;;;;;4935903;29;20499;-84
2021/04/19 03:32:20;;;;;;;18.13;14.13;;;;;;;;;;4935626;29;20423;-80
2021/04/19 03:34:47;;;;;;;20.63;15.53;;;;;;;;;;4935870;29;20792;-77
2021/04/19 03:40:16;;;;;;;19.40;13.63;;;;;;;;;;4935522;29;20838;-77
2021/04/19 03:42:46;;;;;;;23.65;16.83;;;;;;;;;;4935642;29;20431;-83
2021/04/19 03:45:12;;;;;;;21.00;14.33;;;;;;;;;;4934974;29;20169;-82
2021/04/19 03:47:39;;;;;;;17.33;14.00;;;;;;;;;;4935225;29;20427;-79
2021/04/19 03:50:06;;;;;;;18.23;14.18;;;;;;;;;;4935412;29;20420;-79
2021/04/19 03:55:36;;;;;;;20.67;14.32;;;;;;;;;;4935512;29;20243;-78
2021/04/19 03:58:02;;;;;;;15.95;14.27;;;;;;;;;;4918252;29;20218;-78
2021/04/19 04:00:29;;;;;;;17.23;14.00;;;;;;;;;;4935226;29;20529;-81
2021/04/19 04:02:55;;;;;;;18.30;14.53;;;;;;;;;;4935291;29;20795;-79
2021/04/19 04:05:22;;;;;;;18.20;14.95;;;;;;;;;;4934990;29;20479;-77
2021/04/19 04:07:49;;;;;;;18.50;15.00;;;;;;;;;;4934305;29;20175;-80
2021/04/19 04:10:16;;;;;;;16.90;14.73;;;;;;;;;;4935355;29;20416;-81
2021/04/19 04:12:42;;;;;;;16.90;14.40;;;;;;;;;;4935350;29;20607;-79
2021/04/19 04:15:08;;;;;;;18.47;13.80;;;;;;;;;;4934990;29;20412;-81
2021/04/19 04:17:34;;;;;;;18.13;15.65;;;;;;;;;;4935208;29;20432;-77
2021/04/19 04:20:00;;;;;;;18.83;14.37;;;;;;;;;;4935093;29;20542;-77
2021/04/19 04:25:30;;;;;;;16.00;14.10;;;;;;;;;;4935986;29;20545;-75
2021/04/19 04:27:57;;;;;;;19.65;15.50;;;;;;;;;;4945652;29;20424;-80
2021/04/19 04:30:23;;;;;;;20.75;16.23;;;;;;;;;;4950425;29;20628;-77
2021/04/19 04:32:49;;;;;;;19.73;14.37;;;;;;;;;;4935819;29;20200;-76
2021/04/19 04:35:16;;;;;;;22.70;17.10;;;;;;;;;;4935157;29;20420;-78
2021/04/19 04:40:46;;;;;;;19.50;16.00;;;;;;;;;;4935270;29;20481;-78
2021/04/19 04:43:19;;;;;;;22.80;15.33;;;;;;;;;;4935195;29;20812;-78
2021/04/19 04:45:46;;;;;;;24.43;17.10;;;;;;;;;;4934871;29;20444;-81
2021/04/19 04:48:23;;;;;;;20.48;16.27;;;;;;;;;;4934785;29;20733;-78
2021/04/19 04:50:59;;;;;;;18.23;15.87;;;;;;;;;;4935033;29;20245;-82
2021/04/19 04:53:25;;;;;;;22.07;16.33;;;;;;;;;;4917788;29;20470;-80
2021/04/19 04:55:53;;;;;;;18.13;14.10;;;;;;;;;;4934474;29;20458;-82
2021/04/19 04:58:19;;;;;;;22.33;16.40;;;;;;;;;;4934788;29;20475;-83
2021/04/19 05:00:45;;;;;;;20.70;16.03;;;;;;;;;;4934502;29;20460;-78
2021/04/19 05:03:12;;;;;;;18.90;15.77;;;;;;;;;;4934693;29;20416;-83
2021/04/19 05:05:42;;;;;;;18.53;15.67;;;;;;;;;;4934857;29;20416;-82
2021/04/19 05:11:12;;;;;;;17.73;14.97;;;;;;;;;;4934769;29;20792;-82
2021/04/19 05:13:38;;;;;;;21.50;17.65;;;;;;;;;;4934693;29;20416;-80
2021/04/19 05:16:04;;;;;;;21.65;15.85;;;;;;;;;;4934600;29;20182;-81
2021/04/19 05:18:31;;;;;;;19.13;15.40;;;;;;;;;;4935221;29;20194;-80
2021/04/19 05:20:57;;;;;;;21.17;16.17;;;;;;;;;;4938698;29;20503;-77
2021/04/19 05:23:23;;;;;;;22.75;14.88;;;;;;;;;;4938507;29;20487;-79
2021/04/19 05:25:49;;;;;;;25.17;16.40;;;;;;;;;;4938475;29;20186;-82
2021/04/19 05:28:16;;;;;;;17.10;14.77;;;;;;;;;;4938556;29;20262;-77
2021/04/19 05:30:43;;;;;;;20.77;14.70;;;;;;;;;;4938083;29;20979;-83
2021/04/19 05:33:09;;;;;;;19.97;14.37;;;;;;;;;;4938599;29;20419;-81
2021/04/19 05:35:36;;;;;;;14.90;12.80;;;;;;;;;;4938536;29;20907;-78
2021/04/19 05:41:05;;;;;;;21.03;13.60;;;;;;;;;;4938354;29;20583;-80
2021/04/19 05:43:32;;;;;;;17.20;13.43;;;;;;;;;;4921133;29;20513;-79
2021/04/19 05:45:59;;;;;;;17.33;13.20;;;;;;;;;;4921142;29;20444;-77
2021/04/19 05:48:25;;;;;;;20.87;14.73;;;;;;;;;;4938140;29;20428;-75
2021/04/19 05:50:52;;;;;;;17.70;13.90;;;;;;;;;;4937871;29;20433;-75
2021/04/19 05:56:30;;;;;;;17.33;14.53;;;;;;;;;;4938196;29;20475;-79
2021/04/19 05:59:16;;;;;;;20.00;15.67;;;;;;;;;;4938032;29;20471;-78
2021/04/19 06:01:44;;;;;;;19.83;15.60;;;;;;;;;;4920480;29;20891;-78
2021/04/19 06:04:12;;;;;;;19.13;14.50;;;;;;;;;;4937783;29;20412;-82
2021/04/19 06:06:38;;;;;;;20.03;14.87;;;;;;;;;;4937909;29;20537;-80
2021/04/19 06:09:04;;;;;;;21.73;15.63;;;;;;;;;;4937244;29;20483;-78
2021/04/19 06:11:37;;;;;;;20.27;14.73;;;;;;;;;;4937621;29;20917;-85
2021/04/19 06:14:04;;;;;;;16.70;13.60;;;;;;;;;;4945543;29;20424;-78
2021/04/19 06:16:30;;;;;;;18.17;12.63;;;;;;;;;;4951104;29;20507;-82
2021/04/19 06:18:57;;;;;;;18.00;13.57;;;;;;;;;;4941163;29;20416;-83
2021/04/19 06:21:23;;;;;;;18.90;12.60;;;;;;;;;;4937955;29;20519;-82
2021/04/19 06:26:52;;;;;;;20.13;13.27;;;;;;;;;;4937065;29;20431;-76
2021/04/19 06:29:25;;;;;;;23.50;15.37;;;;;;;;;;4937181;29;20417;-84
2021/04/19 06:31:52;;;;;;;20.30;15.40;;;;;;;;;;4936384;29;20568;-83
2021/04/19 06:34:18;;;;;;;14.80;13.20;;;;;;;;;;4937075;29;20767;-82
2021/04/19 06:36:46;;;;;;;21.73;14.83;;;;;;;;;;4936651;29;20164;-78
2021/04/19 06:42:15;;;;;;;16.00;14.20;;;;;;;;;;4936911;29;20938;-82
2021/04/19 06:44:42;;;;;;;20.07;13.77;;;;;;;;;;4937533;29;20183;-81
2021/04/19 06:47:09;;;;;;;17.95;15.40;;;;;;;;;;4936104;29;20960;-84
2021/04/19 06:49:36;;;;;;;16.23;13.80;;;;;;;;;;4934740;29;20246;-84
2021/04/19 06:57:52;;;;;;;19.88;14.95;;;;;;;;;;4935444;29;20175;-80
2021/04/19 07:00:19;;;;;;;17.27;12.73;;;;;;;;;;4935029;29;20200;-80
2021/04/19 07:02:48;;;;;;;18.23;14.75;;;;;;;;;;4934747;29;20258;-76
2021/04/19 07:05:35;;;;;;;21.88;15.40;;;;;;;;;;4935184;29;20197;-77
2021/04/19 07:08:11;;;;;;;18.23;13.87;;;;;;;;;;4935163;29;20193;-76
2021/04/19 07:10:42;;;;;;;24.38;16.02;;;;;;;;;;4935219;29;20424;-78
2021/04/19 07:13:09;;;;;;;18.70;14.70;;;;;;;;;;4934815;29;20255;-80
2021/04/19 07:15:42;;;;;;;17.45;15.10;;;;;;;;;;4935358;29;20259;-79
2021/04/19 07:18:08;;;;;;;21.50;14.77;;;;;;;;;;4935027;29;20172;-79
2021/04/19 07:20:35;;;;;;;17.73;14.05;;;;;;;;;;4935064;29;20479;-82
2021/04/19 07:23:01;;;;;;;16.58;14.20;;;;;;;;;;4935497;28;20229;-85
2021/04/19 07:25:28;;;;;;;20.65;13.85;;;;;;;;;;4935559;29;20183;-81
2021/04/19 07:27:54;;;;;;;16.70;13.30;;;;;;;;;;4935593;29;20176;-79
2021/04/19 07:30:21;;;;;;;21.40;14.23;;;;;;;;;;4935308;29;20518;-80
2021/04/19 07:32:47;;;;;;;21.33;13.57;;;;;;;;;;4935347;29;20421;-80
2021/04/19 07:35:13;;;;;;;17.52;13.50;;;;;;;;;;4936072;29;20498;-81
2021/04/19 07:37:39;;;;;;;17.90;13.70;;;;;;;;;;4919196;29;20287;-82
2021/04/19 07:40:06;;;;;;;20.30;15.35;;;;;;;;;;4936451;29;20176;-79
2021/04/19 07:42:38;;;;;;;19.23;14.75;;;;;;;;;;4936084;29;20262;-80
2021/04/19 07:45:05;;;;;;;22.23;16.23;;;;;;;;;;4936284;29;20199;-77
2021/04/19 07:47:38;;;;;;;16.53;13.47;;;;;;;;;;4936071;29;20737;-81
2021/04/19 07:50:20;;;;;;;18.85;13.82;;;;;;;;;;4936182;29;20417;-84
2021/04/19 07:52:49;;;;;;;18.50;13.80;;;;;;;;;;4934158;29;20291;-82
2021/04/19 07:55:16;;;;;;;19.08;13.90;;;;;;;;;;4934315;29;20595;-83
2021/04/19 07:57:46;;;;;;;17.80;14.40;;;;;;;;;;4934975;29;20177;-83
2021/04/19 08:00:21;;;;;;;19.52;15.15;;;;;;;;;;4935575;29;20204;-77
2021/04/19 08:02:56;;;;;;;17.95;14.45;;;;;;;;;;4953685;28;20188;-83
2021/04/19 08:05:31;;;;;;;18.08;13.77;;;;;;;;;;4937546;29;20171;-84
2021/04/19 08:07:57;;;;;;;17.75;15.13;;;;;;;;;;4935328;29;20624;-84
2021/04/19 08:10:23;;;;;;;17.50;13.00;;;;;;;;;;4935206;29;20268;-82
2021/04/19 08:12:52;;;;;;;21.23;15.20;;;;;;;;;;4934972;29;20432;-81
2021/04/19 08:15:21;;;;;;;16.60;14.30;;;;;;;;;;4934588;29;20514;-84
2021/04/19 08:17:47;;;;;;;20.57;15.17;;;;;;;;;;4934771;29;20176;-83
2021/04/19 08:20:15;;;;;;;20.33;14.40;;;;;;;;;;4934506;29;20583;-85
2021/04/19 08:22:44;;;;;;;17.20;13.77;;;;;;;;;;4918193;29;20459;-81
2021/04/19 08:28:15;;;;;;;16.83;13.50;;;;;;;;;;4953695;29;20419;-79
2021/04/19 08:30:43;;;;;;;17.20;13.97;;;;;;;;;;4953643;29;20417;-83
2021/04/19 08:33:10;;;;;;;17.53;14.13;;;;;;;;;;4936730;29;20441;-84
2021/04/19 08:35:36;;;;;;;14.98;13.15;;;;;;;;;;4953963;29;20423;-84
2021/04/19 08:38:04;;;;;;;19.60;14.90;;;;;;;;;;4953704;29;20229;-85
2021/04/19 08:40:30;;;;;;;19.80;15.47;;;;;;;;;;4953824;29;20459;-83
2021/04/19 08:42:57;;;;;;;19.30;14.75;;;;;;;;;;4953822;29;20450;-81
2021/04/19 08:45:24;;;;;;;17.77;13.43;;;;;;;;;;4953478;29;20599;-82
2021/04/19 08:47:51;;;;;;;19.90;14.80;;;;;;;;;;4953741;29;20423;-83
2021/04/19 08:50:21;;;;;;;20.37;14.70;;;;;;;;;;4953734;29;20404;-83
2021/04/19 08:52:47;;;;;;;21.10;14.77;;;;;;;;;;4953687;28;20446;-83
2021/04/19 08:58:18;;;;;;;20.02;14.70;;;;;;;;;;4957482;29;20450;-85
2021/04/19 09:00:45;;;;;;;23.50;16.63;;;;;;;;;;4957401;29;20562;-85
2021/04/19 09:03:15;;;;;;;20.58;15.50;;;;;;;;;;4957483;29;20486;-83
2021/04/19 09:05:41;;;;;;;21.17;15.80;;;;;;;;;;4957250;29;20179;-81
2021/04/19 09:08:08;;;;;;;17.48;14.77;;;;;;;;;;4957214;29;20416;-85
2021/04/19 09:13:44;;;;;;;23.13;15.67;;;;;;;;;;4957095;29;20425;-82
2021/04/19 09:16:14;;;;;;;18.27;15.40;;;;;;;;;;4957239;29;20419;-85
2021/04/19 09:18:41;;;;;;;20.20;15.07;;;;;;;;;;4957295;29;20774;-83
2021/04/19 09:21:08;;;;;;;21.27;15.73;;;;;;;;;;4957492;29;20784;-82
2021/04/19 09:23:35;;;;;;;19.10;15.97;;;;;;;;;;4956892;28;20232;-79
2021/04/19 09:26:02;;;;;;;18.60;15.20;;;;;;;;;;4957521;29;20901;-84
2021/04/19 09:28:36;;;;;;;21.07;15.10;;;;;;;;;;4958892;29;20433;-84
2021/04/19 09:31:02;;;;;;;24.53;16.93;;;;;;;;;;4957562;29;20407;-85
2021/04/19 09:33:28;;;;;;;18.70;16.40;;;;;;;;;;4956864;29;20475;-83
2021/04/19 09:35:54;;;;;;;22.17;16.00;;;;;;;;;;4956718;29;20423;-84
2021/04/19 09:44:27;;;;;;;17.30;14.87;;;;;;;;;;4956685;29;20505;-81
2021/04/19 09:46:54;;;;;;;21.40;16.60;;;;;;;;;;4957162;29;20806;-84
2021/04/19 09:49:23;;;;;;;23.97;15.57;;;;;;;;;;4970988;29;20496;-80
2021/04/19 09:51:49;;;;;;;23.07;16.20;;;;;;;;;;4968943;29;20407;-83
2021/04/19 09:54:18;;;;;;;21.20;15.50;;;;;;;;;;4957154;29;20415;-83
2021/04/19 09:56:45;;;;;;;21.60;17.93;;;;;;;;;;4956962;29;20471;-79
2021/04/19 09:59:18;;;;;;;24.00;16.97;;;;;;;;;;4956221;29;20419;-83
2021/04/19 10:01:48;;;;;;;19.50;15.70;;;;;;;;;;4956139;29;20525;-82
2021/04/19 10:04:15;;;;;;;23.03;16.70;;;;;;;;;;4955228;29;20414;-82
2021/04/19 10:06:50;;;;;;;21.80;16.77;;;;;;;;;;4955070;28;20419;-83
2021/04/19 10:09:17;;;;;;;21.47;17.13;;;;;;;;;;4955233;29;20826;-77
2021/04/19 10:11:50;;;;;;;23.20;16.40;;;;;;;;;;4955735;29;20517;-78
2021/04/19 10:14:21;;;;;;;25.00;18.53;;;;;;;;;;4956570;29;20423;-74
2021/04/19 10:16:49;;;;;;;26.83;18.50;;;;;;;;;;4939359;29;20435;-74
2021/04/19 10:19:26;;;;;;;23.00;18.60;;;;;;;;;;4939504;29;20474;-75
2021/04/19 10:22:00;;;;;;;18.30;15.50;;;;;;;;;;4956123;29;20904;-75
2021/04/19 10:24:27;;;;;;;26.87;19.00;;;;;;;;;;4955953;28;21058;-76
2021/04/19 10:26:54;;;;;;;21.60;17.50;;;;;;;;;;4956736;29;20424;-74
2021/04/19 10:29:22;;;;;;;21.60;16.90;;;;;;;;;;4956108;29;20439;-82
2021/04/19 10:31:48;;;;;;;22.10;16.27;;;;;;;;;;4957139;29;20525;-81
2021/04/19 10:34:15;;;;;;;25.60;19.03;;;;;;;;;;4959348;29;20458;-83
2021/04/19 10:36:52;;;;;;;24.33;17.23;;;;;;;;;;4938892;29;20439;-82
2021/04/19 10:39:22;;;;;;;25.03;20.20;;;;;;;;;;4956352;29;20898;-81
2021/04/19 10:41:49;;;;;;;24.03;19.40;;;;;;;;;;4955721;29;20482;-79
2021/04/19 10:44:16;;;;;;;25.20;18.63;;;;;;;;;;4956147;29;20895;-80
2021/04/19 10:46:43;;;;;;;28.17;17.90;;;;;;;;;;4955558;29;20821;-79
2021/04/19 10:49:20;;;;;;;20.10;15.47;;;;;;;;;;4955508;29;20752;-82
2021/04/19 10:51:49;;;;;;;25.63;18.20;;;;;;;;;;4954837;29;20416;-80
2021/04/19 10:54:15;;;;;;;24.13;18.37;;;;;;;;;;4954500;29;20470;-82
2021/04/19 10:56:43;;;;;;;21.80;17.87;;;;;;;;;;4953786;29;20427;-82
2021/04/19 10:59:10;;;;;;;24.63;17.90;;;;;;;;;;4953823;29;20466;-85
2021/04/19 11:01:40;;;;;;;23.90;18.53;;;;;;;;;;4954363;29;20562;-86
2021/04/19 11:04:07;;;;;;;21.37;18.20;;;;;;;;;;4954817;29;20462;-86
2021/04/19 11:06:33;;;;;;;22.97;18.57;;;;;;;;;;4955624;29;20447;-83
2021/04/19 11:09:02;;;;;;;25.77;19.07;;;;;;;;;;4963853;29;20420;-82
2021/04/19 11:14:36;;;;;;;23.47;17.33;;;;;;;;;;4956817;29;20578;-79
2021/04/19 11:17:04;;;;;;;22.20;16.03;;;;;;;;;;4955307;28;20442;-82
2021/04/19 11:19:32;;;;;;;21.10;16.93;;;;;;;;;;4955286;29;20420;-80
2021/04/19 11:21:59;;;;;;;21.90;16.50;;;;;;;;;;4938111;29;20558;-80
2021/04/19 11:30:36;;;;;;;21.73;16.20;;;;;;;;;;4954452;29;20474;-80
2021/04/19 11:33:06;;;;;;;21.67;16.30;;;;;;;;;;4954632;29;20427;-81
2021/04/19 11:35:40;;;;;;;21.90;17.37;;;;;;;;;;4954629;29;20615;-78
2021/04/19 11:38:08;;;;;;;24.47;16.50;;;;;;;;;;4954353;29;20427;-81
2021/04/19 11:40:35;;;;;;;19.37;16.10;;;;;;;;;;4954220;29;20475;-83
2021/04/19 11:43:20;;;;;;;20.80;16.10;;;;;;;;;;4954717;29;20435;-80
2021/04/19 11:45:46;;;;;;;20.57;17.20;;;;;;;;;;4954038;29;20448;-78
2021/04/19 11:48:13;;;;;;;19.30;15.00;;;;;;;;;;4954261;29;20777;-79
2021/04/19 11:50:42;;;;;;;21.30;15.03;;;;;;;;;;4954214;29;20416;-78
2021/04/19 11:53:08;;;;;;;20.50;14.83;;;;;;;;;;4954141;29;20416;-85
2021/04/19 11:55:35;;;;;;;22.13;17.00;;;;;;;;;;4953842;29;20419;-81
2021/04/19 11:58:01;;;;;;;18.43;15.10;;;;;;;;;;4954304;29;20420;-84
2021/04/19 12:00:27;;;;;;;17.20;13.60;;;;;;;;;;4954141;29;20470;-82
2021/04/19 12:02:53;;;;;;;20.60;15.20;;;;;;;;;;4954075;29;20765;-81
2021/04/19 12:05:22;;;;;;;19.60;13.27;;;;;;;;;;4953803;29;20411;-76
2021/04/19 12:07:48;;;;;;;18.23;14.50;;;;;;;;;;4953856;29;20410;-80
2021/04/19 12:10:14;;;;;;;18.37;14.13;;;;;;;;;;4954077;29;20744;-76
2021/04/19 12:12:40;;;;;;;18.43;15.40;;;;;;;;;;4954126;29;20424;-79
2021/04/19 12:15:06;;;;;;;14.53;12.27;;;;;;;;;;4954082;29;20918;-79
2021/04/19 12:17:32;;;;;;;16.00;13.40;;;;;;;;;;4954148;29;20422;-77
2021/04/19 12:19:58;;;;;;;20.27;14.57;;;;;;;;;;4954615;29;20835;-85
2021/04/19 12:22:24;;;;;;;17.20;13.53;;;;;;;;;;4954604;29;20421;-86
2021/04/19 12:24:50;;;;;;;18.70;14.53;;;;;;;;;;4953867;29;20580;-83
2021/04/19 12:30:20;;;;;;;16.30;13.63;;;;;;;;;;4953200;29;20460;-78
2021/04/19 12:32:46;;;;;;;16.60;14.20;;;;;;;;;;4953831;29;20824;-84
2021/04/19 12:35:13;;;;;;;21.57;15.47;;;;;;;;;;4953870;29;20404;-78
2021/04/19 12:37:39;;;;;;;18.07;14.90;;;;;;;;;;4953877;29;20412;-82
2021/04/19 12:40:05;;;;;;;18.23;13.97;;;;;;;;;;4954148;29;20416;-77
2021/04/19 12:45:36;;;;;;;16.93;15.13;;;;;;;;;;4954161;29;20423;-81
2021/04/19 12:48:06;;;;;;;17.17;14.47;;;;;;;;;;4958084;29;20422;-79
2021/04/19 12:50:33;;;;;;;15.23;13.60;;;;;;;;;;4958085;29;20511;-81
2021/04/19 12:52:59;;;;;;;13.00;10.93;;;;;;;;;;4937573;29;20456;-82
2021/04/19 12:55:28;;;;;;;14.97;12.63;;;;;;;;;;4954439;29;20413;-83
2021/04/19 12:57:55;;;;;;;13.63;10.90;;;;;;;;;;4938953;29;20456;-75
2021/04/19 13:00:21;;;;;;;16.40;13.60;;;;;;;;;;4962832;29;20459;-82
2021/04/19 13:02:47;;;;;;;16.37;13.77;;;;;;;;;;4959469;29;20435;-81
2021/04/19 13:05:16;;;;;;;16.27;12.43;;;;;;;;;;4954264;29;20415;-82
2021/04/19 13:07:42;;;;;;;13.40;11.83;;;;;;;;;;4954155;29;20433;-82
2021/04/19 13:10:08;;;;;;;21.00;13.37;;;;;;;;;;4954109;29;20479;-81
2021/04/19 13:15:38;;;;;;;16.70;11.97;;;;;;;;;;4953496;29;20467;-79
2021/04/19 13:18:04;;;;;;;15.33;12.70;;;;;;;;;;4953562;29;20849;-82
2021/04/19 13:20:30;;;;;;;16.27;12.30;;;;;;;;;;4953356;29;20499;-77
2021/04/19 13:22:56;;;;;;;20.30;15.47;;;;;;;;;;4936144;29;20906;-79
2021/04/19 13:25:23;;;;;;;17.93;13.70;;;;;;;;;;4953784;29;20440;-79
2021/04/19 13:27:49;;;;;;;19.50;13.37;;;;;;;;;;4953680;29;20471;-75
2021/04/19 13:30:16;;;;;;;19.77;12.90;;;;;;;;;;4953924;29;20446;-81
2021/04/19 13:32:42;;;;;;;16.70;13.43;;;;;;;;;;4938181;29;20458;-82
2021/04/19 13:35:09;;;;;;;15.97;13.67;;;;;;;;;;4953578;29;20539;-80
2021/04/19 13:37:36;;;;;;;17.37;12.70;;;;;;;;;;4953255;29;20487;-83
2021/04/19 13:40:03;;;;;;;17.87;13.30;;;;;;;;;;4954476;28;20424;-81
2021/04/19 13:45:32;;;;;;;20.10;13.53;;;;;;;;;;4956704;29;20480;-84
2021/04/19 13:47:58;;;;;;;20.27;15.63;;;;;;;;;;4957126;29;20421;-84
2021/04/19 13:50:24;;;;;;;21.40;15.37;;;;;;;;;;4956579;29;20907;-86
2021/04/19 13:52:52;;;;;;;24.50;15.43;;;;;;;;;;4956793;29;20451;-80
2021/04/19 13:55:18;;;;;;;21.43;16.47;;;;;;;;;;4956799;29;20461;-83
2021/04/19 14:00:47;;;;;;;25.43;17.60;;;;;;;;;;4956343;29;20833;-83
2021/04/19 14:03:13;;;;;;;20.37;15.23;;;;;;;;;;4956566;29;20428;-76
2021/04/19 14:05:39;;;;;;;22.73;17.20;;;;;;;;;;4956403;29;20929;-86
2021/04/19 14:08:05;;;;;;;25.50;17.37;;;;;;;;;;4956305;29;20435;-85
2021/04/19 14:10:31;;;;;;;23.00;16.67;;;;;;;;;;4956457;29;20471;-81
2021/04/19 14:16:01;;;;;;;19.63;16.17;;;;;;;;;;4956102;29;20435;-86
2021/04/19 14:18:27;;;;;;;23.40;16.80;;;;;;;;;;4955859;29;20466;-85
2021/04/19 14:20:53;;;;;;;22.40;15.67;;;;;;;;;;4956809;29;20467;-81
2021/04/19 14:23:21;;;;;;;19.10;14.33;;;;;;;;;;4958331;29;20580;-84
2021/04/19 14:25:47;;;;;;;21.60;15.40;;;;;;;;;;4957916;29;20416;-86
2021/04/19 14:28:13;;;;;;;27.70;16.20;;;;;;;;;;4955969;29;20486;-85
2021/04/19 14:30:39;;;;;;;23.67;15.90;;;;;;;;;;4955852;29;20420;-85
2021/04/19 14:33:05;;;;;;;23.93;17.87;;;;;;;;;;4955768;29;20425;-82
2021/04/19 14:35:31;;;;;;;19.73;14.13;;;;;;;;;;4955801;29;20423;-85
2021/04/19 14:37:57;;;;;;;16.43;12.97;;;;;;;;;;4955632;29;20424;-80
2021/04/19 14:40:23;;;;;;;20.40;14.33;;;;;;;;;;4955642;29;20594;-76
2021/04/19 14:45:52;;;;;;;17.17;14.40;;;;;;;;;;4955544;29;20949;-85
2021/04/19 14:48:18;;;;;;;22.63;15.87;;;;;;;;;;4956017;29;20435;-82
2021/04/19 14:50:44;;;;;;;19.77;16.20;;;;;;;;;;4971643;28;20417;-76
2021/04/19 14:53:11;;;;;;;20.43;15.40;;;;;;;;;;4959295;29;20421;-82
2021/04/19 14:55:37;;;;;;;22.33;15.60;;;;;;;;;;4956568;29;20772;-88
2021/04/19 15:01:06;;;;;;;23.57;15.50;;;;;;;;;;4954434;29;20479;-83
2021/04/19 15:03:33;;;;;;;20.77;16.63;;;;;;;;;;4955083;29;20425;-76
2021/04/19 15:05:58;;;;;;;17.33;15.20;;;;;;;;;;4954750;29;20432;-80
2021/04/19 15:08:24;;;;;;;22.90;15.17;;;;;;;;;;4954554;29;20435;-78
2021/04/19 15:10:51;;;;;;;18.30;15.80;;;;;;;;;;4954502;29;20491;-78
2021/04/19 15:16:20;;;;;;;19.57;14.63;;;;;;;;;;4954382;29;20486;-77
2021/04/19 15:18:46;;;;;;;26.10;16.10;;;;;;;;;;4954287;29;20412;-80
2021/04/19 15:21:13;;;;;;;20.07;14.73;;;;;;;;;;4954780;29;20824;-80
2021/04/19 15:23:39;;;;;;;18.47;14.37;;;;;;;;;;4954192;28;21035;-81
2021/04/19 15:26:05;;;;;;;14.87;12.77;;;;;;;;;;4953652;29;20481;-80
2021/04/19 15:31:35;;;;;;;15.90;14.30;;;;;;;;;;4954984;29;20927;-80
2021/04/19 15:34:05;;;;;;;17.10;13.10;;;;;;;;;;4954677;29;21014;-81
2021/04/19 15:36:31;;;;;;;15.80;13.00;;;;;;;;;;4954931;29;20748;-85
2021/04/19 15:38:57;;;;;;;19.53;13.47;;;;;;;;;;4955229;29;20521;-80
2021/04/19 15:41:23;;;;;;;15.53;12.97;;;;;;;;;;4937286;29;20615;-78
2021/04/19 15:43:49;;;;;;;16.13;12.67;;;;;;;;;;4954950;29;20429;-84
2021/04/19 15:46:15;;;;;;;12.73;11.13;;;;;;;;;;4937389;29;20430;-80
2021/04/19 15:48:42;;;;;;;13.27;10.20;;;;;;;;;;4938333;29;20436;-82
2021/04/19 15:51:08;;;;;;;16.20;13.47;;;;;;;;;;4957957;29;20421;-83
2021/04/19 15:53:35;;;;;;;18.63;13.33;;;;;;;;;;4954800;29;20426;-84
2021/04/19 15:56:01;;;;;;;15.40;11.27;;;;;;;;;;4954615;29;20420;-77
2021/04/19 16:01:31;;;;;;;13.53;11.40;;;;;;;;;;4954650;29;20842;-80
2021/04/19 16:03:57;;;;;;;15.10;12.43;;;;;;;;;;4953498;28;20421;-79
2021/04/19 16:06:23;;;;;;;12.33;9.93;;;;;;;;;;4954425;29;20931;-79
2021/04/19 16:08:49;;;;;;;15.53;10.47;;;;;;;;;;4954398;29;20425;-79
2021/04/19 16:11:16;;;;;;;12.30;9.97;;;;;;;;;;4954480;29;20434;-81
2021/04/19 16:16:48;;;;;;;13.10;9.90;;;;;;;;;;4953854;29;20436;-84
2021/04/19 16:19:14;;;;;;;11.97;10.77;;;;;;;;;;4954284;29;20828;-82